Time;durP1;ratioP1;P1;durP2;ratioP2;P2;SDS_P1;SDS_P2;PMS_P1;PMS_P2;Temp;Humidity;BMP_temperature;BMP_pressure;BME280_temperature;BME280_humidity;BME280_pressure;Samples;Min_cycle;Max_cycle;Signal;HPM_P1;HPM_P2
2023/04/20 00:00:16;;;;;;;2.47;1.90;;;;;;;2.01;100.00;95769.66;5070345;28;24440;-74
2023/04/20 00:02:43;;;;;;;3.05;1.92;;;;;;;1.99;100.00;95779.06;5070022;28;24442;-74
2023/04/20 00:05:11;;;;;;;4.90;2.00;;;;;;;2.07;100.00;95775.38;5073101;28;24498;-74
2023/04/20 00:07:40;;;;;;;2.33;2.10;;;;;;;2.06;100.00;95768.63;5071454;28;24475;-73
2023/04/20 00:10:09;;;;;;;4.32;2.67;;;;;;;1.79;100.00;95764.31;5070009;28;24445;-74
2023/04/20 00:12:35;;;;;;;4.93;3.30;;;;;;;1.58;100.00;95760.63;5070255;28;25086;-74
2023/04/20 00:15:02;;;;;;;7.47;3.78;;;;;;;1.77;100.00;95753.28;5061357;28;24458;-74
2023/04/20 00:17:29;;;;;;;5.57;3.42;;;;;;;1.92;100.00;95755.41;5071490;28;25004;-74
2023/04/20 00:19:55;;;;;;;3.47;3.10;;;;;;;2.01;100.00;95754.31;5072236;28;24813;-74
2023/04/20 00:22:21;;;;;;;3.67;2.63;;;;;;;1.53;100.00;95745.47;5071140;28;25175;-74
2023/04/20 00:24:48;;;;;;;3.47;2.58;;;;;;;1.09;100.00;95733.91;5062222;28;24453;-73
2023/04/20 00:27:16;;;;;;;4.78;2.72;;;;;;;1.03;100.00;95734.88;5070451;28;24450;-74
2023/04/20 00:29:42;;;;;;;3.30;2.40;;;;;;;1.06;100.00;95727.16;5068748;28;24484;-74
2023/04/20 00:32:09;;;;;;;7.55;2.60;;;;;;;1.27;100.00;95737.69;5063105;28;24514;-74
2023/04/20 00:34:35;;;;;;;5.68;4.20;;;;;;;1.16;100.00;95720.94;5069321;28;24477;-74
2023/04/20 00:37:02;;;;;;;4.87;3.90;;;;;;;1.09;100.00;95721.16;5070236;28;24515;-74
2023/04/20 00:39:28;;;;;;;4.53;4.13;;;;;;;1.25;100.00;95717.28;5068821;28;24438;-74
2023/04/20 00:41:55;;;;;;;6.38;3.72;;;;;;;1.06;100.00;95719.50;5064221;28;24449;-74
2023/04/20 00:44:23;;;;;;;5.45;2.95;;;;;;;1.19;100.00;95708.13;5057252;28;24443;-75
2023/04/20 00:46:52;;;;;;;3.92;2.45;;;;;;;1.44;100.00;95705.69;5059958;28;24441;-74
2023/04/20 00:49:19;;;;;;;3.15;2.20;;;;;;;1.51;100.00;95700.44;5073919;28;24485;-74
2023/04/20 00:51:45;;;;;;;7.30;2.50;;;;;;;1.60;100.00;95700.19;5080482;28;24442;-74
2023/04/20 00:54:12;;;;;;;2.97;2.13;;;;;;;1.56;100.00;95701.13;5076138;28;24451;-74
2023/04/20 00:56:38;;;;;;;4.40;2.20;;;;;;;1.53;100.00;95702.06;5073498;28;24438;-74
2023/04/20 00:59:05;;;;;;;2.55;1.90;;;;;;;1.32;100.00;95695.00;5077057;28;24442;-74
2023/04/20 01:01:33;;;;;;;3.70;3.03;;;;;;;1.38;100.00;95694.84;5074042;28;24492;-74
2023/04/20 01:04:00;;;;;;;3.78;2.22;;;;;;;1.45;100.00;95692.06;5070295;28;24453;-74
2023/04/20 01:06:26;;;;;;;3.00;2.30;;;;;;;1.49;100.00;95687.72;5063875;28;24443;-74
2023/04/20 01:08:53;;;;;;;3.47;1.90;;;;;;;1.35;100.00;95685.56;5072723;28;24434;-74
2023/04/20 01:11:20;;;;;;;5.07;2.30;;;;;;;1.24;100.00;95681.63;5071795;28;25025;-74
2023/04/20 01:13:46;;;;;;;2.50;1.90;;;;;;;1.20;100.00;95676.63;5077033;28;24483;-74
2023/04/20 01:16:13;;;;;;;2.75;2.05;;;;;;;1.27;100.00;95671.34;5062153;28;24454;-74
2023/04/20 01:18:45;;;;;;;3.65;2.15;;;;;;;1.34;100.00;95670.31;5073220;28;24955;-74
2023/04/20 01:21:12;;;;;;;4.55;2.40;;;;;;;1.31;100.00;95660.19;5056585;28;24542;-74
2023/04/20 01:23:39;;;;;;;3.63;2.45;;;;;;;1.20;100.00;95652.81;5071329;28;24439;-74
2023/04/20 01:26:07;;;;;;;3.63;2.65;;;;;;;1.15;100.00;95652.97;5068204;28;24438;-74
2023/04/20 01:28:33;;;;;;;4.22;3.25;;;;;;;0.99;100.00;95651.69;5068051;28;24999;-74
2023/04/20 01:31:00;;;;;;;5.38;3.75;;;;;;;0.98;100.00;95641.53;5067223;28;24454;-74
2023/04/20 01:33:26;;;;;;;6.22;4.30;;;;;;;0.83;100.00;95640.25;5063828;28;24533;-74
2023/04/20 01:35:53;;;;;;;15.88;4.00;;;;;;;0.67;100.00;95635.56;5069976;28;24458;-74
2023/04/20 01:38:21;;;;;;;26.45;4.18;;;;;;;0.59;100.00;95628.97;5064324;28;24435;-73
2023/04/20 01:40:49;;;;;;;21.77;3.57;;;;;;;0.60;100.00;95625.56;5066478;28;24523;-74
2023/04/20 01:43:16;;;;;;;15.27;3.33;;;;;;;0.71;100.00;95623.56;5079081;28;24418;-74
2023/04/20 01:45:43;;;;;;;15.27;3.50;;;;;;;0.83;100.00;95619.84;5074532;28;24438;-74
2023/04/20 01:48:09;;;;;;;22.13;3.45;;;;;;;0.85;100.00;95625.72;5073426;28;24446;-74
2023/04/20 01:50:36;;;;;;;4.10;3.22;;;;;;;0.93;100.00;95616.19;5083536;28;24431;-74
2023/04/20 01:53:02;;;;;;;6.43;3.23;;;;;;;1.08;100.00;95614.91;5083423;28;24518;-74
2023/04/20 01:55:29;;;;;;;22.42;3.40;;;;;;;1.11;100.00;95609.69;5079775;28;24537;-73
2023/04/20 01:57:58;;;;;;;7.05;3.17;;;;;;;1.12;100.00;95607.13;5071159;28;24442;-73
2023/04/20 02:00:24;;;;;;;6.10;3.15;;;;;;;1.06;100.00;95606.47;5072058;28;24473;-73
2023/04/20 02:02:51;;;;;;;12.55;3.00;;;;;;;0.81;100.00;95604.56;5074300;28;24796;-73
2023/04/20 02:05:17;;;;;;;12.20;3.28;;;;;;;0.76;100.00;95605.59;5065230;28;25011;-73
2023/04/20 02:07:44;;;;;;;12.00;3.10;;;;;;;0.73;100.00;95601.41;5067008;28;24439;-73
2023/04/20 02:10:11;;;;;;;6.47;2.85;;;;;;;0.78;100.00;95602.13;5064442;28;24470;-73
2023/04/20 02:12:37;;;;;;;10.07;3.20;;;;;;;0.84;100.00;95599.41;5070723;28;24444;-73
2023/04/20 02:15:08;;;;;;;16.77;4.05;;;;;;;0.70;100.00;95604.91;5063667;28;25024;-73
2023/04/20 02:17:35;;;;;;;16.42;3.72;;;;;;;0.63;100.00;95602.53;5065933;28;24438;-73
2023/04/20 02:20:02;;;;;;;36.08;4.38;;;;;;;0.61;100.00;95594.09;5075195;28;24435;-73
2023/04/20 02:22:33;;;;;;;7.25;3.63;;;;;;;0.78;100.00;95596.16;5079731;28;24439;-73
2023/04/20 02:25:00;;;;;;;66.15;4.88;;;;;;;0.33;100.00;95593.97;5059362;28;25027;-73
2023/04/20 02:27:27;;;;;;;45.50;4.47;;;;;;;0.09;100.00;95587.78;5074766;28;24439;-73
2023/04/20 02:29:53;;;;;;;12.27;3.63;;;;;;;0.30;100.00;95582.16;5069817;28;26183;-73
2023/04/20 02:32:21;;;;;;;39.67;4.40;;;;;;;0.13;100.00;95582.59;5064878;28;24809;-73
2023/04/20 02:34:48;;;;;;;35.25;4.25;;;;;;;-0.02;100.00;95586.34;5065677;28;24430;-73
2023/04/20 02:37:14;;;;;;;7.50;3.97;;;;;;;0.15;100.00;95579.97;5074558;28;24473;-73
2023/04/20 02:39:41;;;;;;;5.25;3.72;;;;;;;0.38;100.00;95574.31;5073028;28;25070;-73
2023/04/20 02:42:07;;;;;;;7.85;3.60;;;;;;;0.42;100.00;95566.56;5073920;28;24980;-73
2023/04/20 02:44:34;;;;;;;4.63;3.13;;;;;;;0.53;100.00;95568.00;5076026;28;25008;-73
2023/04/20 02:47:00;;;;;;;5.15;2.80;;;;;;;0.59;100.00;95561.00;5075003;28;24429;-73
2023/04/20 02:49:28;;;;;;;4.43;3.00;;;;;;;0.47;100.00;95567.25;5081940;28;24457;-73
2023/04/20 02:51:55;;;;;;;4.72;2.88;;;;;;;0.56;100.00;95558.56;5073781;28;24437;-73
2023/04/20 02:54:21;;;;;;;3.42;2.95;;;;;;;0.47;100.00;95553.69;5073673;28;24556;-73
2023/04/20 02:56:47;;;;;;;5.00;3.20;;;;;;;0.12;100.00;95555.44;5056127;28;24540;-73
2023/04/20 02:59:14;;;;;;;7.07;2.95;;;;;;;0.30;100.00;95554.16;5070245;28;24439;-73
2023/04/20 03:01:40;;;;;;;5.78;2.28;;;;;;;0.37;100.00;95552.25;5081741;28;24450;-73
2023/04/20 03:04:07;;;;;;;4.15;2.35;;;;;;;0.32;100.00;95556.66;5069691;28;24441;-71
2023/04/20 03:06:35;;;;;;;3.70;2.70;;;;;;;0.16;100.00;95553.66;5072106;28;24446;-72
2023/04/20 03:09:02;;;;;;;2.45;2.25;;;;;;;0.13;100.00;95549.47;5075509;28;24557;-71
2023/04/20 03:11:29;;;;;;;3.60;2.50;;;;;;;0.20;100.00;95548.44;5067445;28;24431;-72
2023/04/20 03:13:56;;;;;;;3.33;2.57;;;;;;;0.31;100.00;95547.34;5072907;28;24715;-72
2023/04/20 03:16:22;;;;;;;3.92;2.58;;;;;;;0.18;100.00;95546.81;5062483;28;24452;-72
2023/04/20 03:18:49;;;;;;;3.08;2.58;;;;;;;0.21;100.00;95551.81;5077064;28;24429;-72
2023/04/20 03:21:16;;;;;;;3.95;2.67;;;;;;;0.22;100.00;95551.81;5065051;28;25000;-72
2023/04/20 03:23:43;;;;;;;7.47;3.33;;;;;;;0.19;100.00;95541.69;5080675;28;24492;-72
2023/04/20 03:26:11;;;;;;;4.07;3.67;;;;;;;0.18;100.00;95540.00;5061419;28;24435;-72
2023/04/20 03:28:38;;;;;;;11.85;4.18;;;;;;;0.18;100.00;95539.16;5081359;28;24434;-72
2023/04/20 03:31:05;;;;;;;11.07;4.00;;;;;;;0.12;100.00;95540.19;5059722;28;24451;-72
2023/04/20 03:33:31;;;;;;;33.13;4.35;;;;;;;-0.08;100.00;95547.47;5061596;28;24450;-72
2023/04/20 03:35:58;;;;;;;29.80;3.63;;;;;;;-0.39;100.00;95542.28;5062173;28;24447;-72
2023/04/20 03:38:24;;;;;;;33.83;3.60;;;;;;;-0.59;100.00;95538.50;5073615;28;24462;-72
2023/04/20 03:40:52;;;;;;;30.70;3.30;;;;;;;-0.49;100.00;95532.31;5073666;28;24427;-72
2023/04/20 03:43:19;;;;;;;5.57;2.78;;;;;;;-0.33;100.00;95539.63;5075580;28;24426;-72
2023/04/20 03:45:45;;;;;;;7.32;3.13;;;;;;;-0.18;100.00;95541.78;5074912;28;24434;-72
2023/04/20 03:48:12;;;;;;;20.80;3.78;;;;;;;-0.28;100.00;95536.06;5078965;28;24437;-72
2023/04/20 03:50:38;;;;;;;19.52;3.08;;;;;;;-0.42;100.00;95537.28;5079572;28;24438;-72
2023/04/20 03:53:05;;;;;;;9.98;2.85;;;;;;;-0.52;100.00;95537.50;5081214;28;24461;-72
2023/04/20 03:55:31;;;;;;;5.45;2.60;;;;;;;-0.45;100.00;95538.16;5078741;28;24450;-72
2023/04/20 03:57:59;;;;;;;2.92;2.60;;;;;;;-0.24;100.00;95534.28;5068617;28;24431;-72
2023/04/20 04:00:25;;;;;;;3.42;2.92;;;;;;;-0.04;100.00;95534.66;5069226;28;25015;-72
2023/04/20 04:02:52;;;;;;;2.90;2.60;;;;;;;-0.03;100.00;95526.13;5069163;28;24454;-72
2023/04/20 04:05:18;;;;;;;3.63;3.15;;;;;;;0.00;100.00;95527.75;5078845;28;24430;-72
2023/04/20 04:07:45;;;;;;;3.72;3.00;;;;;;;-0.02;100.00;95522.69;5074462;28;24434;-72
2023/04/20 04:10:12;;;;;;;2.53;2.33;;;;;;;-0.10;100.00;95523.78;5079473;28;24434;-72
2023/04/20 04:12:38;;;;;;;4.72;3.00;;;;;;;-0.09;100.00;95528.81;5079537;28;24461;-72
2023/04/20 04:15:07;;;;;;;3.13;2.83;;;;;;;0.06;100.00;95535.22;5068406;28;24441;-72
2023/04/20 04:17:34;;;;;;;3.38;2.65;;;;;;;0.03;100.00;95529.38;5068594;28;24452;-72
2023/04/20 04:20:00;;;;;;;3.45;2.67;;;;;;;0.08;100.00;95530.94;5067066;28;24466;-72
2023/04/20 04:22:27;;;;;;;2.72;2.45;;;;;;;0.01;100.00;95534.53;5065866;28;24461;-72
2023/04/20 04:24:54;;;;;;;2.60;2.40;;;;;;;0.06;100.00;95540.31;5076192;28;24439;-72
2023/04/20 04:27:21;;;;;;;3.17;2.83;;;;;;;0.23;100.00;95533.09;5062368;28;24508;-72
2023/04/20 04:29:48;;;;;;;5.60;2.97;;;;;;;0.14;100.00;95530.75;5080500;28;24482;-72
2023/04/20 04:32:16;;;;;;;2.95;2.60;;;;;;;0.01;100.00;95533.69;5059234;28;24435;-72
2023/04/20 04:34:43;;;;;;;4.70;2.70;;;;;;;0.01;100.00;95531.16;5079319;28;24438;-72
2023/04/20 04:37:10;;;;;;;6.00;3.08;;;;;;;0.03;100.00;95534.47;5054693;28;24483;-72
2023/04/20 04:39:37;;;;;;;5.35;3.78;;;;;;;0.09;100.00;95529.22;5075535;28;24482;-72
2023/04/20 04:42:04;;;;;;;5.78;4.75;;;;;;;-0.14;100.00;95527.28;5072953;28;24438;-72
2023/04/20 04:44:30;;;;;;;10.70;4.75;;;;;;;-0.12;100.00;95520.41;5067601;28;24441;-72
2023/04/20 04:46:57;;;;;;;4.50;4.00;;;;;;;-0.01;100.00;95523.53;5059468;28;24431;-72
2023/04/20 04:49:25;;;;;;;11.40;4.75;;;;;;;0.12;100.00;95524.91;5073641;28;24427;-72
2023/04/20 04:51:52;;;;;;;5.32;4.75;;;;;;;0.16;100.00;95516.28;5070200;28;24423;-72
2023/04/20 04:54:18;;;;;;;9.48;4.57;;;;;;;0.19;100.00;95518.78;5071096;28;24446;-72
2023/04/20 04:56:44;;;;;;;6.80;3.83;;;;;;;0.33;100.00;95526.03;5078997;28;24536;-72
2023/04/20 04:59:11;;;;;;;10.52;4.13;;;;;;;0.21;100.00;95522.09;5073776;28;24431;-72
2023/04/20 05:01:37;;;;;;;13.40;4.13;;;;;;;0.20;100.00;95511.97;5070788;28;24438;-72
2023/04/20 05:04:04;;;;;;;9.85;3.95;;;;;;;0.06;100.00;95514.84;5064188;28;24820;-73
2023/04/20 05:06:32;;;;;;;4.57;3.93;;;;;;;0.01;100.00;95516.69;5066669;28;24458;-73
2023/04/20 05:08:58;;;;;;;8.43;3.70;;;;;;;0.08;100.00;95525.03;5069537;28;24430;-72
2023/04/20 05:11:25;;;;;;;10.05;4.78;;;;;;;-0.10;100.00;95524.59;5071428;28;24446;-72
2023/04/20 05:13:51;;;;;;;8.03;5.03;;;;;;;0.04;100.00;95516.63;5080625;28;24445;-72
2023/04/20 05:16:18;;;;;;;7.55;6.75;;;;;;;0.16;100.00;95518.00;5071438;28;24450;-72
2023/04/20 05:18:44;;;;;;;8.82;7.93;;;;;;;0.33;100.00;95520.09;5071454;28;24810;-72
2023/04/20 05:21:11;;;;;;;9.95;6.53;;;;;;;0.44;100.00;95518.09;5059934;28;24442;-72
2023/04/20 05:23:39;;;;;;;9.35;5.78;;;;;;;0.47;100.00;95512.91;5072337;28;24446;-72
2023/04/20 05:26:05;;;;;;;14.18;6.13;;;;;;;0.54;100.00;95516.97;5078952;28;24437;-72
2023/04/20 05:28:33;;;;;;;16.52;5.07;;;;;;;0.81;100.00;95527.25;5074222;28;24439;-72
2023/04/20 05:31:00;;;;;;;14.43;4.50;;;;;;;0.76;100.00;95531.66;5053139;28;24438;-72
2023/04/20 05:33:26;;;;;;;7.00;4.07;;;;;;;0.81;100.00;95524.72;5057535;28;24442;-72
2023/04/20 05:35:56;;;;;;;7.45;3.75;;;;;;;0.85;100.00;95523.75;5087800;28;24808;-73
2023/04/20 05:38:22;;;;;;;6.40;3.70;;;;;;;0.93;100.00;95516.72;5066885;28;24466;-72
2023/04/20 05:40:50;;;;;;;4.38;3.50;;;;;;;1.04;100.00;95517.25;5082728;28;24438;-72
2023/04/20 05:43:18;;;;;;;3.88;3.47;;;;;;;1.29;100.00;95514.78;5071524;28;24459;-72
2023/04/20 05:45:44;;;;;;;6.03;3.55;;;;;;;1.24;100.00;95510.72;5083613;28;24884;-71
2023/04/20 05:48:10;;;;;;;6.57;3.47;;;;;;;1.34;100.00;95519.75;5067623;28;24458;-72
2023/04/20 05:50:37;;;;;;;3.92;3.42;;;;;;;1.51;100.00;95514.94;5071353;28;24981;-72
2023/04/20 05:53:03;;;;;;;3.53;3.20;;;;;;;1.62;100.00;95520.53;5065245;28;24442;-73
2023/04/20 05:55:30;;;;;;;5.20;3.30;;;;;;;1.33;100.00;95520.63;5072273;28;24441;-73
2023/04/20 05:57:58;;;;;;;4.50;3.55;;;;;;;1.42;100.00;95520.34;5073382;28;24521;-72
2023/04/20 06:00:24;;;;;;;4.40;3.67;;;;;;;1.68;100.00;95520.38;5067671;28;24443;-72
2023/04/20 06:02:51;;;;;;;7.35;4.10;;;;;;;1.76;100.00;95519.28;5061917;28;24439;-72
2023/04/20 06:05:18;;;;;;;6.93;3.80;;;;;;;1.94;100.00;95527.19;5072265;28;24476;-72
2023/04/20 06:07:45;;;;;;;4.80;3.63;;;;;;;2.22;100.00;95517.75;5079680;28;24525;-73
2023/04/20 06:10:11;;;;;;;5.63;4.88;;;;;;;1.95;100.00;95528.00;5072962;28;20120;-72
2023/04/20 06:12:38;;;;;;;;;;;;;;;1.66;100.00;95526.38;5082113;28;20418;-72
2023/04/20 06:15:09;;;;;;;5.97;4.80;;;;;;;1.80;100.00;95523.41;5075919;28;19963;-73
2023/04/20 06:17:36;;;;;;;7.00;5.60;;;;;;;2.10;100.00;95522.38;5086887;28;20044;-72
2023/04/20 06:20:04;;;;;;;6.15;5.25;;;;;;;2.41;100.00;95518.78;5075689;28;20040;-73
2023/04/20 06:22:30;;;;;;;8.05;5.30;;;;;;;2.67;100.00;95517.88;5078874;28;20052;-73
2023/04/20 06:24:57;;;;;;;9.25;6.20;;;;;;;3.04;100.00;95516.50;5082795;28;20048;-73
2023/04/20 06:27:24;;;;;;;7.15;5.07;;;;;;;3.38;100.00;95505.84;5086567;28;20040;-72
2023/04/20 06:29:50;;;;;;;10.60;5.47;;;;;;;3.47;100.00;95502.91;5077499;28;20053;-72
2023/04/20 06:32:18;;;;;;;8.73;5.55;;;;;;;3.70;100.00;95507.13;5056343;28;20053;-72
2023/04/20 06:34:46;;;;;;;8.07;5.07;;;;;;;4.02;100.00;95498.13;5068341;28;20055;-72
2023/04/20 06:37:13;;;;;;;7.00;6.20;;;;;;;4.26;100.00;95509.06;5071336;28;20480;-73
2023/04/20 06:39:39;;;;;;;;;;;;;;;4.51;100.00;95508.88;5075441;28;20120;-72
2023/04/20 06:42:06;;;;;;;;;;;;;;;4.74;100.00;95507.03;5069489;28;19925;-72
2023/04/20 06:44:32;;;;;;;;;;;;;;;5.01;100.00;95507.56;5068298;28;20050;-72
2023/04/20 06:46:59;;;;;;;;;;;;;;;5.15;100.00;95510.31;5068056;28;19920;-72
2023/04/20 06:49:26;;;;;;;5.72;5.13;;;;;;;4.85;100.00;95512.53;5069139;28;19920;-73
2023/04/20 06:51:53;;;;;;;6.40;5.30;;;;;;;4.63;100.00;95509.25;5065096;28;24434;-73
2023/04/20 06:54:19;;;;;;;5.70;5.15;;;;;;;4.65;100.00;95512.59;5072103;28;20044;-73
2023/04/20 06:56:46;;;;;;;8.65;5.68;;;;;;;4.97;100.00;95504.31;5079164;28;20052;-73
2023/04/20 06:59:14;;;;;;;7.07;5.60;;;;;;;5.31;100.00;95503.59;5069172;28;20049;-72
2023/04/20 07:01:41;;;;;;;9.48;5.40;;;;;;;5.60;100.00;95496.25;5079775;28;20045;-72
2023/04/20 07:04:07;;;;;;;8.40;5.43;;;;;;;6.01;100.00;95496.03;5062145;28;20067;-74
2023/04/20 07:06:35;;;;;;;15.30;5.88;;;;;;;5.95;100.00;95499.72;5077547;28;20050;-72
2023/04/20 07:09:03;;;;;;;;;;;;;;;5.96;100.00;95495.41;5075483;28;20054;-73
2023/04/20 07:11:29;;;;;;;;;;;;;;;5.34;100.00;95492.34;5080280;28;19924;-72
2023/04/20 07:13:55;;;;;;;;;;;;;;;5.62;100.00;95485.91;5085337;28;20540;-72
2023/04/20 07:16:21;;;;;;;;;;;;;;;5.87;100.00;95480.41;5060983;28;19927;-73
2023/04/20 07:18:48;;;;;;;;;;;;;;;6.17;100.00;95485.81;5058782;28;19931;-72
2023/04/20 07:21:15;;;;;;;;;;;;;;;6.17;100.00;95485.81;5066790;28;19931;-72
2023/04/20 07:23:42;;;;;;;;;;;;;;;6.14;100.00;95494.50;5071660;28;19952;-73
2023/04/20 07:26:09;;;;;;;;;;;;;;;5.93;100.00;95492.97;5070132;28;19970;-73
2023/04/20 07:28:35;;;;;;;;;;;;;;;6.05;100.00;95493.22;5072643;28;20370;-73
2023/04/20 07:31:01;;;;;;;;;;;;;;;5.87;100.00;95491.53;5065137;28;19928;-72
2023/04/20 07:33:28;;;;;;;;;;;;;;;5.28;100.00;95488.31;5052830;28;19925;-73
2023/04/20 07:35:55;;;;;;;;;;;;;;;5.43;100.00;95481.63;5071313;28;20011;-73
2023/04/20 07:38:21;;;;;;;;;;;;;;;5.86;100.00;95477.00;5074722;28;19943;-73
2023/04/20 07:40:49;;;;;;;6.30;5.70;;;;;;;6.32;100.00;95486.78;5071248;28;19927;-73
2023/04/20 07:43:15;;;;;;;7.32;5.90;;;;;;;6.43;100.00;95480.16;5060207;28;20045;-73
2023/04/20 07:45:41;;;;;;;7.75;6.57;;;;;;;6.45;100.00;95482.66;5058070;28;20045;-73
2023/04/20 07:48:11;;;;;;;6.78;5.93;;;;;;;6.48;100.00;95475.63;5083710;28;20450;-73
2023/04/20 07:50:37;;;;;;;8.75;6.38;;;;;;;6.41;100.00;95481.16;5083450;28;20123;-73
2023/04/20 07:53:04;;;;;;;7.00;6.07;;;;;;;6.33;100.00;95484.13;5052897;28;20056;-73
2023/04/20 07:55:30;;;;;;;;;;;;;;;6.35;100.00;95484.88;5079212;28;20052;-73
2023/04/20 07:57:59;;;;;;;;;;;;;;;6.14;100.00;95484.22;5056342;28;20311;-71
2023/04/20 08:00:26;;;;;;;;;;;;;;;6.53;100.00;95483.13;5078147;28;19920;-72
2023/04/20 08:02:52;;;;;;;;;;;;;;;6.60;100.00;95481.03;5056268;28;19927;-72
2023/04/20 08:05:18;;;;;;;;;;;;;;;6.68;100.00;95478.91;5075669;28;19927;-71
2023/04/20 08:07:45;;;;;;;;;;;;;;;6.69;100.00;95478.00;5073523;28;19931;-72
2023/04/20 08:10:11;;;;;;;;;;;;;;;6.61;100.00;95483.56;5065599;28;19954;-71
2023/04/20 08:12:38;;;;;;;;;;;;;;;7.01;100.00;95469.41;5079033;28;19920;-72
2023/04/20 08:15:06;;;;;;;;;;;;;;;7.37;100.00;95465.75;5065981;28;19924;-72
2023/04/20 08:17:33;;;;;;;;;;;;;;;7.25;100.00;95469.00;5068439;28;19925;-72
2023/04/20 08:20:00;;;;;;;;;;;;;;;7.30;100.00;95464.41;5073916;28;19928;-72
2023/04/20 08:22:28;;;;;;;;;;;;;;;7.24;100.00;95460.44;5074145;28;19964;-72
2023/04/20 08:24:55;;;;;;;;;;;;;;;7.04;100.00;95463.25;5067401;28;19931;-72
2023/04/20 08:27:21;;;;;;;;;;;;;;;6.91;100.00;95459.69;5078478;28;19952;-71
2023/04/20 08:29:47;;;;;;;;;;;;;;;6.98;100.00;95467.00;5071299;28;19920;-72
2023/04/20 08:32:17;;;;;;;;;;;;;;;7.15;100.00;95467.81;5071242;28;19959;-71
2023/04/20 08:34:43;;;;;;;;;;;;;;;7.12;100.00;95465.41;5076623;28;19999;-71
2023/04/20 08:37:09;;;;;;;;;;;;;;;7.39;100.00;95460.53;5071165;28;19929;-72
2023/04/20 08:39:37;;;;;;;;;;;;;;;7.24;100.00;95462.19;5075726;28;20033;-73
2023/04/20 08:42:04;;;;;;;;;;;;;;;7.40;100.00;95463.00;5078948;28;20371;-70
2023/04/20 08:44:30;;;;;;;;;;;;;;;7.39;100.00;95457.94;5076245;28;19927;-70
2023/04/20 08:46:56;;;;;;;;;;;;;;;7.54;100.00;95458.84;5082073;28;19920;-73
2023/04/20 08:49:26;;;;;;;;;;;;;;;7.39;100.00;95455.38;5065749;28;19928;-73
2023/04/20 08:51:53;;;;;;;;;;;;;;;7.36;100.00;95453.78;5076034;28;19924;-73
2023/04/20 08:54:19;;;;;;;;;;;;;;;7.05;100.00;95457.22;5081161;28;19928;-72
2023/04/20 08:56:46;;;;;;;;;;;;;;;6.83;100.00;95460.09;5081854;28;19921;-73
2023/04/20 08:59:13;;;;;;;;;;;;;;;6.71;100.00;95464.16;5061329;28;20303;-72
2023/04/20 09:01:40;;;;;;;;;;;;;;;6.83;100.00;95451.53;5082048;28;19968;-73
2023/04/20 09:04:15;;;;;;;;;;;;;;;6.59;100.00;95456.22;5069400;28;20015;-72
2023/04/20 09:06:44;;;;;;;;;;;;;;;6.35;100.00;95460.91;5059964;28;19920;-72
2023/04/20 09:09:11;;;;;;;;;;;;;;;6.21;100.00;95464.16;5064439;28;19967;-73
2023/04/20 09:11:37;;;;;;;;;;;;;;;5.86;100.00;95468.44;5082506;28;19928;-72
2023/04/20 09:14:05;;;;;;;;;;;;;;;5.75;100.00;95466.44;5077487;28;19921;-72
2023/04/20 09:16:31;;;;;;;;;;;;;;;5.47;100.00;95459.19;5072424;28;19928;-73
2023/04/20 09:18:58;;;;;;;;;;;;;;;5.48;100.00;95460.84;5062655;28;19944;-72
2023/04/20 09:21:26;;;;;;;;;;;;;;;5.52;100.00;95465.75;5074303;28;19924;-72
2023/04/20 09:23:57;;;;;;;;;;;;;;;5.40;100.00;95456.09;5079816;28;19920;-72
2023/04/20 09:26:24;;;;;;;;;;;;;;;5.31;100.00;95464.25;5065739;28;20233;-72
2023/04/20 09:28:50;;;;;;;;;;;;;;;5.22;100.00;95459.53;5065614;28;19920;-72
2023/04/20 09:31:20;;;;;;;;;;;;;;;5.19;100.00;95464.78;5079301;28;19920;-71
2023/04/20 09:33:55;;;;;;;;;;;;;;;5.18;100.00;95466.53;5071327;28;20370;-72
2023/04/20 09:36:21;;;;;;;;;;;;;;;5.08;100.00;95460.19;5072215;28;19921;-72
2023/04/20 09:38:47;;;;;;;;;;;;;;;5.02;100.00;95465.59;5068892;28;19920;-73
2023/04/20 09:41:16;;;;;;;;;;;;;;;5.09;100.00;95457.53;5075757;28;19928;-72
2023/04/20 09:43:42;;;;;;;;;;;;;;;5.16;100.00;95460.66;5069791;28;19935;-72
2023/04/20 09:46:09;;;;;;;;;;;;;;;5.10;100.00;95461.75;5071553;28;19924;-72
2023/04/20 09:48:35;;;;;;;;;;;;;;;5.00;100.00;95457.94;5081216;28;20002;-72
2023/04/20 09:51:02;;;;;;;;;;;;;;;4.91;100.00;95463.50;5081066;28;19925;-72
2023/04/20 09:53:30;;;;;;;;;;;;;;;4.93;100.00;95460.84;5075212;28;19974;-72
2023/04/20 09:55:57;;;;;;;;;;;;;;;4.89;100.00;95460.16;5075681;28;20282;-72
2023/04/20 09:58:24;;;;;;;;;;;;;;;5.02;100.00;95456.16;5071478;28;19921;-72
2023/04/20 10:00:51;;;;;;;10.02;9.02;;;;;;;4.89;100.00;95452.47;5084772;28;20294;-73
2023/04/20 10:03:18;;;;;;;;;;;;;;;4.90;100.00;95453.31;5082747;28;20048;-72
2023/04/20 10:05:44;;;;;;;;;;;;;;;5.07;100.00;95453.38;5074217;28;19924;-73
2023/04/20 10:08:11;;;;;;;;;;;;;;;5.07;100.00;95455.94;5073074;28;19928;-74
2023/04/20 10:10:46;;;;;;;12.18;9.05;;;;;;;5.20;100.00;95453.66;5087892;28;19920;-73
2023/04/20 10:13:18;;;;;;;15.45;9.95;;;;;;;5.08;100.00;95449.91;5071023;28;20076;-72
2023/04/20 10:15:46;;;;;;;11.43;9.48;;;;;;;5.08;100.00;95455.03;5058541;28;20136;-74
2023/04/20 10:18:19;;;;;;;10.68;9.57;;;;;;;5.01;100.00;95446.78;5064121;28;20443;-73
2023/04/20 10:20:46;;;;;;;10.80;9.55;;;;;;;4.91;100.00;95439.59;5075152;28;20048;-73
2023/04/20 10:23:14;;;;;;;16.38;10.43;;;;;;;5.03;100.00;95423.59;5074606;28;20052;-74
2023/04/20 10:25:44;;;;;;;13.52;9.88;;;;;;;5.02;100.00;95427.91;5076018;28;20049;-73
2023/04/20 10:28:10;;;;;;;13.10;10.07;;;;;;;5.00;100.00;95423.75;5079975;28;20134;-73
2023/04/20 10:30:49;;;;;;;12.23;10.45;;;;;;;5.05;100.00;95419.25;5081488;28;20056;-74
2023/04/20 10:33:17;;;;;;;11.98;9.85;;;;;;;5.09;100.00;95416.47;5077694;28;20055;-73
2023/04/20 10:35:47;;;;;;;10.48;9.45;;;;;;;4.89;100.00;95406.28;5073037;28;20547;-74
2023/04/20 10:38:15;;;;;;;10.73;9.57;;;;;;;4.81;100.00;95410.94;5074257;28;20899;-72
2023/04/20 10:40:42;;;;;;;15.65;10.27;;;;;;;5.08;100.00;95414.81;5079007;28;20107;-74
2023/04/20 10:43:19;;;;;;;11.88;9.80;;;;;;;5.14;100.00;95417.97;5076114;28;20044;-73
2023/04/20 10:45:46;;;;;;;12.25;10.20;;;;;;;5.15;100.00;95417.06;5081377;28;20040;-72
2023/04/20 10:48:13;;;;;;;11.27;10.10;;;;;;;4.99;100.00;95402.38;5065148;28;20063;-73
2023/04/20 10:50:41;;;;;;;10.60;9.25;;;;;;;5.02;100.00;95394.56;5079558;28;20086;-73
2023/04/20 10:53:20;;;;;;;9.95;9.05;;;;;;;4.92;100.00;95401.00;5077770;28;20055;-73
2023/04/20 10:55:46;;;;;;;12.13;9.93;;;;;;;4.72;100.00;95406.25;5071805;28;20817;-72
2023/04/20 10:58:23;;;;;;;10.73;9.73;;;;;;;4.85;100.00;95397.88;5065333;28;20049;-73
2023/04/20 11:00:57;;;;;;;16.58;9.95;;;;;;;4.80;100.00;95401.59;5073351;28;20052;-71
2023/04/20 11:03:25;;;;;;;13.35;10.65;;;;;;;5.00;100.00;95396.34;5072233;28;20049;-73
2023/04/20 11:05:52;;;;;;;13.38;9.65;;;;;;;5.10;100.00;95402.72;5070872;28;20516;-73
2023/04/20 11:08:19;;;;;;;14.25;10.35;;;;;;;5.05;100.00;95396.97;5060201;28;20045;-73
2023/04/20 11:10:46;;;;;;;12.43;10.48;;;;;;;4.93;100.00;95394.13;5082397;28;20051;-73
2023/04/20 11:13:19;;;;;;;13.05;9.85;;;;;;;4.98;100.00;95402.47;5066867;28;20098;-73
2023/04/20 11:15:46;;;;;;;14.88;10.77;;;;;;;5.00;100.00;95401.47;5057023;28;20490;-74
2023/04/20 11:18:12;;;;;;;12.35;11.05;;;;;;;4.93;100.00;95405.25;5065293;28;20087;-74
2023/04/20 11:20:50;;;;;;;13.75;11.00;;;;;;;4.99;100.00;95407.53;5073254;28;20537;-73
2023/04/20 11:23:19;;;;;;;16.40;12.02;;;;;;;4.84;100.00;95410.81;5075920;28;20063;-73
2023/04/20 11:25:51;;;;;;;12.98;10.73;;;;;;;4.81;100.00;95410.94;5070388;28;20091;-73
2023/04/20 11:28:17;;;;;;;12.05;10.85;;;;;;;4.90;100.00;95420.78;5068268;28;20041;-72
2023/04/20 11:30:44;;;;;;;13.70;10.68;;;;;;;4.86;100.00;95416.72;5079197;28;20044;-73
2023/04/20 11:33:12;;;;;;;13.32;10.95;;;;;;;4.93;100.00;95405.25;5064128;28;20067;-73
2023/04/20 11:35:40;;;;;;;16.05;11.65;;;;;;;4.84;100.00;95403.94;5068723;28;20059;-73
2023/04/20 11:38:07;;;;;;;12.95;11.60;;;;;;;4.82;100.00;95405.75;5065587;28;20075;-74
2023/04/20 11:40:35;;;;;;;15.68;12.13;;;;;;;4.93;100.00;95409.53;5070797;28;20064;-73
2023/04/20 11:43:03;;;;;;;14.13;11.05;;;;;;;4.84;100.00;95400.53;5075935;28;20050;-73
2023/04/20 11:45:32;;;;;;;16.70;12.55;;;;;;;4.85;100.00;95397.06;5070141;28;20087;-73